KHYS/HYS METAR and TAF weather

Enter ICAO airport designator
Station Type Date Time Source
KHYS METAR 2022/06/28 23:56 UTC NOAA

KHYS 282356Z AUTO 16012KT 10SM CLR 32/11 A3011 RMK AO2 SLP184 6//// T03220111 10333 20283 56011 $


Station Type Date Time Source
KHYS Decoded METAR 2022/06/28 23:56 UTC NOAA

Hays, Hays Regional Airport, KS, United States (KHYS) 38-51N 099-16W
Jun 28, 2022 - 07:56 PM EDT / 2022.06.28 2356 UTC
Wind: from the SSE (160 degrees) at 14 MPH (12 KT):0
Visibility: 10 mile(s):0
Sky conditions: clear
Temperature: 90.0 F (32.2 C)
Dew Point: 52.0 F (11.1 C)
Relative Humidity: 27%
Pressure (altimeter): 30.11 in. Hg (1019 hPa)
Pressure tendency: 0.03 inches (1.1 hPa) lower than three hours ago
ob: KHYS 282356Z AUTO 16012KT 10SM CLR 32/11 A3011 RMK AO2 SLP184 6//// T03220111 10333 20283 56011
cycle: 0

Station Type Date Time Source
KHYS TAF 2022/06/28 18:24 UTC NOAA

TAF KHYS 281723Z 2818/2918 19015G22KT P6SM SKC
FM290300 19012KT P6SM SKC
FM291500 20017G27KT P6SM SKC

Example: see airport list